createdAt,value
2023-01-01T00:00:14.263Z,18.70
2023-01-01T00:01:14.377Z,18.68
2023-01-01T00:02:14.605Z,18.70
2023-01-01T00:03:14.727Z,18.71
2023-01-01T00:04:14.933Z,18.73
2023-01-01T00:05:15.059Z,18.74
2023-01-01T00:06:15.226Z,18.73
2023-01-01T00:07:15.418Z,18.74
2023-01-01T00:08:15.587Z,18.74
2023-01-01T00:09:15.770Z,18.74
2023-01-01T00:10:15.927Z,18.74
2023-01-01T00:11:16.089Z,18.74
2023-01-01T00:12:16.256Z,18.75
2023-01-01T00:13:16.428Z,18.73
2023-01-01T00:14:16.595Z,18.73
2023-01-01T00:15:16.765Z,18.73
2023-01-01T00:16:16.992Z,18.73
2023-01-01T00:17:17.125Z,18.75
2023-01-01T00:18:17.288Z,18.75
2023-01-01T00:19:17.474Z,18.74
2023-01-01T00:20:17.620Z,18.75
2023-01-01T00:21:17.793Z,18.75
2023-01-01T00:22:52.590Z,18.74
2023-01-01T00:23:19.110Z,18.75
2023-01-01T00:24:18.301Z,18.75
2023-01-01T00:25:18.468Z,18.75
2023-01-01T00:26:18.628Z,18.75
2023-01-01T00:27:18.810Z,18.74
2023-01-01T00:28:18.989Z,18.73
2023-01-01T00:29:19.151Z,18.74
2023-01-01T00:30:19.366Z,18.74
2023-01-01T00:31:19.562Z,18.73
2023-01-01T00:32:22.900Z,18.73
2023-01-01T00:33:19.869Z,18.73
2023-01-01T00:34:20.036Z,18.73
2023-01-01T00:35:20.189Z,18.70
2023-01-01T00:36:20.348Z,18.71
2023-01-01T00:37:20.527Z,18.71
2023-01-01T00:38:20.697Z,18.70
2023-01-01T00:39:20.861Z,18.70
2023-01-01T00:40:21.053Z,18.70
2023-01-01T00:41:21.211Z,18.71
2023-01-01T00:42:21.367Z,18.73
2023-01-01T00:43:21.549Z,18.73
2023-01-01T00:44:21.709Z,18.71
2023-01-01T00:45:22.829Z,18.71
2023-01-01T00:46:22.087Z,18.70
2023-01-01T00:47:22.189Z,18.70
2023-01-01T00:48:22.368Z,18.70
2023-01-01T00:49:22.533Z,18.70
2023-01-01T00:50:22.703Z,18.70
2023-01-01T00:51:22.849Z,18.70
2023-01-01T00:52:23.010Z,18.70
2023-01-01T00:53:23.217Z,18.68
2023-01-01T00:54:23.380Z,18.71
2023-01-01T00:55:23.559Z,18.70
2023-01-01T00:56:23.712Z,18.70
2023-01-01T00:57:23.888Z,18.70
2023-01-01T00:58:24.057Z,18.71
2023-01-01T00:59:28.694Z,18.73
2023-01-01T01:00:24.411Z,18.71
2023-01-01T01:01:24.605Z,18.71
2023-01-01T01:02:24.895Z,18.68
2023-01-01T01:03:24.955Z,18.71
2023-01-01T01:04:25.059Z,18.71
2023-01-01T01:05:25.219Z,18.71
2023-01-01T01:06:25.395Z,18.73
2023-01-01T01:07:25.573Z,18.71
2023-01-01T01:08:30.674Z,18.71
2023-01-01T01:09:26.912Z,18.71
2023-01-01T01:10:26.082Z,18.71
2023-01-01T01:11:26.294Z,18.71
2023-01-01T01:12:26.456Z,18.74
2023-01-01T01:13:26.611Z,18.75
2023-01-01T01:14:26.784Z,18.77
2023-01-01T01:15:26.930Z,18.77
2023-01-01T01:16:27.212Z,18.75
2023-01-01T01:17:27.288Z,18.74
2023-01-01T01:18:27.447Z,18.75
2023-01-01T01:19:27.602Z,18.78
2023-01-01T01:20:27.762Z,18.78
2023-01-01T01:21:27.941Z,18.77
2023-01-01T01:22:28.994Z,18.75
2023-01-01T01:23:28.301Z,18.77
2023-01-01T01:24:28.474Z,18.75
2023-01-01T01:25:28.630Z,18.75
2023-01-01T01:26:28.794Z,18.75
2023-01-01T01:27:28.966Z,18.75
2023-01-01T01:28:29.131Z,18.74
2023-01-01T01:29:29.312Z,18.78
2023-01-01T01:30:29.533Z,18.77
2023-01-01T01:31:29.656Z,18.75
2023-01-01T01:32:29.802Z,18.77
2023-01-01T01:33:29.988Z,18.77
2023-01-01T01:34:30.135Z,18.75
2023-01-01T01:35:30.299Z,18.74
2023-01-01T01:36:30.459Z,18.74
2023-01-01T01:37:30.621Z,18.75
2023-01-01T01:38:30.810Z,18.77
2023-01-01T01:39:30.970Z,18.77
2023-01-01T01:40:31.131Z,18.74
2023-01-01T01:41:31.294Z,18.75
2023-01-01T01:42:31.451Z,18.75
2023-01-01T01:43:31.631Z,18.78
2023-01-01T01:44:31.799Z,18.77
2023-01-01T01:45:33.595Z,18.77
2023-01-01T01:46:32.178Z,18.81
2023-01-01T01:47:32.308Z,18.78
2023-01-01T01:48:32.479Z,18.80
2023-01-01T01:49:32.641Z,18.80
2023-01-01T01:50:32.816Z,18.80
2023-01-01T01:51:32.962Z,18.81
2023-01-01T01:52:33.121Z,18.81
2023-01-01T01:53:33.304Z,18.83
2023-01-01T01:54:33.460Z,18.86
2023-01-01T01:55:33.630Z,18.84
2023-01-01T01:56:33.782Z,18.84
2023-01-01T01:57:33.948Z,18.88
2023-01-01T01:58:34.109Z,18.88
2023-01-01T01:59:34.280Z,18.84
2023-01-01T02:00:34.444Z,18.88
2023-01-01T02:01:34.694Z,18.88
2023-01-01T02:02:34.898Z,18.86
2023-01-01T02:03:34.961Z,18.86
2023-01-01T02:04:35.112Z,18.88
2023-01-01T02:05:35.313Z,18.84
2023-01-01T02:06:35.486Z,18.86
2023-01-01T02:07:35.645Z,18.83
2023-01-01T02:08:35.822Z,18.81
2023-01-01T02:09:35.982Z,18.80
2023-01-01T02:10:36.133Z,18.78
2023-01-01T02:11:36.301Z,18.80
2023-01-01T02:12:36.464Z,18.77
2023-01-01T02:13:36.643Z,18.81
2023-01-01T02:14:36.792Z,18.80
2023-01-01T02:15:37.058Z,18.78
2023-01-01T02:16:37.166Z,18.78
2023-01-01T02:17:39.466Z,18.78
2023-01-01T02:18:37.505Z,18.77
2023-01-01T02:19:37.673Z,18.74
2023-01-01T02:20:37.835Z,18.74
2023-01-01T02:21:37.992Z,18.74
2023-01-01T02:22:38.156Z,18.73
2023-01-01T02:23:38.360Z,18.71
2023-01-01T02:24:38.524Z,18.70
2023-01-01T02:25:38.689Z,18.68
2023-01-01T02:26:39.032Z,18.66
2023-01-01T02:27:39.023Z,18.65
2023-01-01T02:28:39.193Z,18.65
2023-01-01T02:29:39.378Z,18.62
2023-01-01T02:30:39.545Z,18.60
2023-01-01T02:31:39.751Z,18.62
2023-01-01T02:32:39.864Z,18.59
2023-01-01T02:33:40.064Z,18.59
2023-01-01T02:34:40.222Z,18.58
2023-01-01T02:35:40.382Z,18.56
2023-01-01T02:36:40.555Z,18.55
2023-01-01T02:37:40.732Z,18.55
2023-01-01T02:38:40.891Z,18.52
2023-01-01T02:39:41.054Z,18.53
2023-01-01T02:40:41.214Z,18.52
2023-01-01T02:41:41.398Z,18.50
2023-01-01T02:42:41.562Z,18.49
2023-01-01T02:43:41.722Z,18.49
2023-01-01T02:44:41.865Z,18.47
2023-01-01T02:45:42.031Z,18.44
2023-01-01T02:46:42.195Z,18.44
2023-01-01T02:47:42.365Z,18.41
2023-01-01T02:48:42.595Z,18.43
2023-01-01T02:49:42.684Z,18.40
2023-01-01T02:50:42.873Z,18.41
2023-01-01T02:51:43.036Z,18.41
2023-01-01T02:52:43.217Z,18.38
2023-01-01T02:53:43.375Z,18.37
2023-01-01T02:54:43.541Z,18.34
2023-01-01T02:55:43.709Z,18.35
2023-01-01T02:56:43.865Z,18.33
2023-01-01T02:57:44.036Z,18.33
2023-01-01T02:58:44.212Z,18.31
2023-01-01T02:59:44.375Z,18.31
2023-01-01T03:00:44.536Z,18.33
2023-01-01T03:01:44.751Z,18.33
2023-01-01T03:02:50.349Z,18.31
2023-01-01T03:03:46.086Z,18.29
2023-01-01T03:04:45.226Z,18.29
2023-01-01T03:05:45.398Z,18.29
2023-01-01T03:06:45.584Z,18.25
2023-01-01T03:07:45.736Z,18.25
2023-01-01T03:08:45.900Z,18.25
2023-01-01T03:09:46.060Z,18.23
2023-01-01T03:10:46.228Z,18.23
2023-01-01T03:11:46.457Z,18.20
2023-01-01T03:12:46.573Z,18.20
2023-01-01T03:13:46.739Z,18.19
2023-01-01T03:14:46.915Z,18.16
2023-01-01T03:15:47.131Z,18.15
2023-01-01T03:16:47.249Z,18.15
2023-01-01T03:17:47.407Z,18.13
2023-01-01T03:18:47.567Z,18.13
2023-01-01T03:19:47.737Z,18.15
2023-01-01T03:20:47.896Z,18.11
2023-01-01T03:21:48.068Z,18.10
2023-01-01T03:23:22.739Z,18.10
2023-01-01T03:24:22.912Z,18.04
2023-01-01T03:25:23.082Z,18.05
2023-01-01T03:26:23.230Z,18.01
2023-01-01T03:27:23.391Z,18.01
2023-01-01T03:28:23.557Z,18.01
2023-01-01T03:29:23.814Z,18.00
2023-01-01T03:30:23.892Z,18.01
2023-01-01T03:31:24.090Z,17.98
2023-01-01T03:32:24.209Z,18.00
2023-01-01T03:33:24.371Z,17.98
2023-01-01T03:34:24.540Z,17.97
2023-01-01T03:35:24.710Z,17.97
2023-01-01T03:36:24.879Z,17.95
2023-01-01T03:37:25.050Z,17.97
2023-01-01T03:38:25.211Z,17.97
2023-01-01T03:39:25.371Z,17.95
2023-01-01T03:40:25.534Z,17.95
2023-01-01T03:41:25.699Z,17.94
2023-01-01T03:42:25.862Z,17.95
2023-01-01T03:43:26.031Z,17.94
2023-01-01T03:44:26.201Z,17.94
2023-01-01T03:45:26.359Z,17.90
2023-01-01T03:46:26.564Z,17.92
2023-01-01T03:47:26.712Z,17.90
2023-01-01T03:48:26.872Z,17.90
2023-01-01T03:49:27.049Z,17.87
2023-01-01T03:50:27.210Z,17.87
2023-01-01T03:51:27.371Z,17.87
2023-01-01T03:52:27.551Z,17.87
2023-01-01T03:53:27.693Z,17.86
2023-01-01T03:54:27.878Z,17.87
2023-01-01T03:55:28.024Z,17.86
2023-01-01T03:56:28.195Z,17.86
2023-01-01T03:57:28.371Z,17.85
2023-01-01T03:58:28.532Z,17.85
2023-01-01T03:59:28.711Z,17.80
2023-01-01T04:00:28.884Z,17.85
2023-01-01T04:01:29.125Z,17.83
2023-01-01T04:02:29.292Z,17.85
2023-01-01T04:03:29.498Z,17.86
2023-01-01T04:04:29.573Z,17.85
2023-01-01T04:05:29.733Z,17.83
2023-01-01T04:06:29.892Z,17.82
2023-01-01T04:07:30.102Z,17.83
2023-01-01T04:08:30.258Z,17.83
2023-01-01T04:09:30.457Z,17.80
2023-01-01T04:10:30.610Z,17.82
2023-01-01T04:11:30.802Z,17.83
2023-01-01T04:12:30.982Z,17.82
2023-01-01T04:13:31.143Z,17.80
2023-01-01T04:14:31.313Z,17.82
2023-01-01T04:15:31.479Z,17.83
2023-01-01T04:16:31.657Z,17.82
2023-01-01T04:17:31.815Z,17.82
2023-01-01T04:18:31.973Z,17.80
2023-01-01T04:19:32.153Z,17.80
2023-01-01T04:20:32.316Z,17.79
2023-01-01T04:21:32.503Z,17.78
2023-01-01T04:22:32.672Z,17.80
2023-01-01T04:23:32.833Z,17.79
2023-01-01T04:24:33.008Z,17.76
2023-01-01T04:25:33.172Z,17.76
2023-01-01T04:26:33.331Z,17.76
2023-01-01T04:27:33.484Z,17.78
2023-01-01T04:28:33.651Z,17.78
2023-01-01T04:29:33.837Z,17.76
2023-01-01T04:31:12.649Z,17.76
2023-01-01T04:32:12.808Z,17.74
2023-01-01T04:33:12.967Z,17.72
2023-01-01T04:34:13.148Z,17.70
2023-01-01T04:35:13.285Z,17.70
2023-01-01T04:36:13.457Z,17.70
2023-01-01T04:37:13.911Z,17.68
2023-01-01T04:38:13.808Z,17.68
2023-01-01T04:39:13.973Z,17.67
2023-01-01T04:40:14.134Z,17.68
2023-01-01T04:41:14.293Z,17.68
2023-01-01T04:42:14.480Z,17.71
2023-01-01T04:43:14.635Z,17.68
2023-01-01T04:44:14.848Z,17.70
2023-01-01T04:45:15.408Z,17.71
2023-01-01T04:46:15.261Z,17.72
2023-01-01T04:47:15.389Z,17.74
2023-01-01T04:48:15.540Z,17.76
2023-01-01T04:49:15.697Z,17.76
2023-01-01T04:50:15.898Z,17.74
2023-01-01T04:51:16.049Z,17.78
2023-01-01T04:52:16.237Z,17.79
2023-01-01T04:53:16.388Z,17.80
2023-01-01T04:54:16.559Z,17.82
2023-01-01T04:55:16.709Z,17.85
2023-01-01T04:56:16.909Z,17.85
2023-01-01T04:57:17.087Z,17.86
2023-01-01T04:58:17.251Z,17.89
2023-01-01T04:59:17.412Z,17.89
2023-01-01T05:00:17.593Z,17.90
2023-01-01T05:01:17.929Z,17.90
2023-01-01T05:02:18.025Z,17.94
2023-01-01T05:03:18.117Z,17.97
2023-01-01T05:04:18.279Z,18.00
2023-01-01T05:05:18.431Z,18.00
2023-01-01T05:06:18.629Z,18.01
2023-01-01T05:07:18.806Z,18.01
2023-01-01T05:08:18.969Z,18.01
2023-01-01T05:09:19.119Z,18.03
2023-01-01T05:10:19.323Z,18.04
2023-01-01T05:11:19.478Z,18.05
2023-01-01T05:12:19.689Z,18.05
2023-01-01T05:13:19.843Z,18.07
2023-01-01T05:14:19.999Z,18.05
2023-01-01T05:15:20.183Z,18.07
2023-01-01T05:16:20.378Z,18.10
2023-01-01T05:17:20.520Z,18.10
2023-01-01T05:18:20.690Z,18.11
2023-01-01T05:19:20.846Z,18.13
2023-01-01T05:20:21.021Z,18.13
2023-01-01T05:21:21.185Z,18.13
2023-01-01T05:22:21.351Z,18.13
2023-01-01T05:23:21.538Z,18.15
2023-01-01T05:24:21.704Z,18.08
2023-01-01T05:25:21.869Z,18.08
2023-01-01T05:26:22.021Z,18.11
2023-01-01T05:27:22.202Z,18.08
2023-01-01T05:28:22.369Z,18.07
2023-01-01T05:29:22.567Z,18.07
2023-01-01T05:30:22.700Z,18.07
2023-01-01T05:31:22.875Z,18.04
2023-01-01T05:32:23.036Z,18.05
2023-01-01T05:33:23.190Z,18.08
2023-01-01T05:34:23.365Z,18.08
2023-01-01T05:35:26.564Z,18.10
2023-01-01T05:36:23.691Z,18.11
2023-01-01T05:37:23.850Z,18.13
2023-01-01T05:38:24.012Z,18.11
2023-01-01T05:39:24.181Z,18.15
2023-01-01T05:40:24.341Z,18.15
2023-01-01T05:41:24.552Z,18.15
2023-01-01T05:42:24.701Z,18.15
2023-01-01T05:43:24.886Z,18.16
2023-01-01T05:44:25.057Z,18.15
2023-01-01T05:45:25.221Z,18.15
2023-01-01T05:46:25.380Z,18.15
2023-01-01T05:47:29.697Z,18.15
2023-01-01T05:48:25.703Z,18.16
2023-01-01T05:49:25.861Z,18.18
2023-01-01T05:50:26.021Z,18.19
2023-01-01T05:51:26.207Z,18.19
2023-01-01T05:52:27.068Z,18.20
2023-01-01T05:53:26.528Z,18.20
2023-01-01T05:54:26.690Z,18.19
2023-01-01T05:55:26.865Z,18.20
2023-01-01T05:56:27.035Z,18.19
2023-01-01T05:57:27.202Z,18.20
2023-01-01T05:58:27.368Z,18.19
2023-01-01T05:59:27.523Z,18.19
2023-01-01T06:00:27.681Z,18.18
2023-01-01T06:01:27.919Z,18.18
2023-01-01T06:02:28.063Z,18.18
2023-01-01T06:03:28.182Z,18.15
2023-01-01T06:04:28.375Z,18.15
2023-01-01T06:05:28.542Z,18.13
2023-01-01T06:06:28.875Z,18.13
2023-01-01T06:07:28.873Z,18.13
2023-01-01T06:08:29.033Z,18.13
2023-01-01T06:09:29.207Z,18.13
2023-01-01T06:10:29.373Z,18.15
2023-01-01T06:11:29.548Z,18.13
2023-01-01T06:12:29.701Z,18.13
2023-01-01T06:13:29.875Z,18.13
2023-01-01T06:14:30.041Z,18.11
2023-01-01T06:15:30.211Z,18.13
2023-01-01T06:16:30.450Z,18.11
2023-01-01T06:17:30.522Z,18.11
2023-01-01T06:18:30.698Z,18.13
2023-01-01T06:19:30.854Z,18.16
2023-01-01T06:20:31.035Z,18.15
2023-01-01T06:21:31.208Z,18.15
2023-01-01T06:22:31.393Z,18.16
2023-01-01T06:23:31.553Z,18.15
2023-01-01T06:24:37.050Z,18.16
2023-01-01T06:25:32.901Z,18.16
2023-01-01T06:26:32.089Z,18.18
2023-01-01T06:27:32.263Z,18.18
2023-01-01T06:28:32.424Z,18.18
2023-01-01T06:29:32.601Z,18.19
2023-01-01T06:30:32.788Z,18.19
2023-01-01T06:31:37.028Z,18.22
2023-01-01T06:32:34.134Z,18.22
2023-01-01T06:33:33.318Z,18.22
2023-01-01T06:34:33.473Z,18.20
2023-01-01T06:35:33.641Z,18.20
2023-01-01T06:36:33.801Z,18.22
2023-01-01T06:37:34.019Z,18.22
2023-01-01T06:38:34.171Z,18.19
2023-01-01T06:39:34.364Z,18.18
2023-01-01T06:40:34.523Z,18.19
2023-01-01T06:41:34.685Z,18.19
2023-01-01T06:42:34.868Z,18.13
2023-01-01T06:43:35.038Z,18.10
2023-01-01T06:44:35.184Z,18.11
2023-01-01T06:45:35.374Z,18.07
2023-01-01T06:46:35.634Z,18.07
2023-01-01T06:47:35.713Z,18.05
2023-01-01T06:48:35.866Z,18.05
2023-01-01T06:49:36.025Z,18.07
2023-01-01T06:50:36.204Z,18.03
2023-01-01T06:51:36.366Z,18.03
2023-01-01T06:52:36.608Z,18.03
2023-01-01T06:53:36.694Z,18.01
2023-01-01T06:54:36.847Z,17.98
2023-01-01T06:55:37.048Z,17.97
2023-01-01T06:56:37.204Z,17.98
2023-01-01T06:57:37.396Z,17.97
2023-01-01T06:58:37.547Z,17.95
2023-01-01T06:59:37.727Z,17.95
2023-01-01T07:00:37.913Z,17.97
2023-01-01T07:01:38.122Z,17.97
2023-01-01T07:02:38.441Z,17.95
2023-01-01T07:03:38.435Z,17.95
2023-01-01T07:04:38.567Z,17.97
2023-01-01T07:05:38.753Z,17.94
2023-01-01T07:06:38.894Z,17.95
2023-01-01T07:07:39.075Z,17.97
2023-01-01T07:08:39.255Z,17.97
2023-01-01T07:09:39.473Z,18.00
2023-01-01T07:10:39.628Z,18.00
2023-01-01T07:11:39.795Z,17.98
2023-01-01T07:12:39.949Z,18.01
2023-01-01T07:13:40.144Z,17.98
2023-01-01T07:14:40.313Z,17.97
2023-01-01T07:15:40.530Z,18.00
2023-01-01T07:16:40.773Z,18.01
2023-01-01T07:17:40.844Z,18.01
2023-01-01T07:18:41.063Z,18.00
2023-01-01T07:19:41.216Z,18.01
2023-01-01T07:20:41.475Z,18.03
2023-01-01T07:21:41.599Z,18.01
2023-01-01T07:22:41.744Z,18.03
2023-01-01T07:23:41.924Z,18.04
2023-01-01T07:24:42.116Z,18.03
2023-01-01T07:25:42.326Z,18.04
2023-01-01T07:26:42.464Z,18.05
2023-01-01T07:27:42.654Z,18.05
2023-01-01T07:28:42.837Z,18.07
2023-01-01T07:29:43.034Z,18.07
2023-01-01T07:30:43.271Z,18.10
2023-01-01T07:31:43.408Z,18.13
2023-01-01T07:32:43.535Z,18.15
2023-01-01T07:33:43.735Z,18.15
2023-01-01T07:34:48.879Z,18.18
2023-01-01T07:35:45.075Z,18.19
2023-01-01T07:36:44.294Z,18.19
2023-01-01T07:37:44.426Z,18.19
2023-01-01T07:38:44.575Z,18.20
2023-01-01T07:39:44.775Z,18.19
2023-01-01T07:40:44.955Z,18.25
2023-01-01T07:41:45.163Z,18.23
2023-01-01T07:42:45.305Z,18.25
2023-01-01T07:43:45.495Z,18.26
2023-01-01T07:44:45.659Z,18.26
2023-01-01T07:45:45.854Z,18.28
2023-01-01T07:46:46.023Z,18.29
2023-01-01T07:47:46.186Z,18.31
2023-01-01T07:48:46.386Z,18.33
2023-01-01T07:49:46.534Z,18.29
2023-01-01T07:50:46.706Z,18.29
2023-01-01T07:51:46.857Z,18.31
2023-01-01T07:52:47.012Z,18.31
2023-01-01T07:53:47.206Z,18.33
2023-01-01T07:54:47.382Z,18.34
2023-01-01T07:55:47.580Z,18.34
2023-01-01T07:56:47.714Z,18.35
2023-01-01T07:57:47.909Z,18.35
2023-01-01T07:58:48.099Z,18.38
2023-01-01T07:59:48.257Z,18.40
2023-01-01T08:00:48.432Z,18.43
2023-01-01T08:01:48.684Z,18.43
2023-01-01T08:02:48.896Z,18.44
2023-01-01T08:03:48.968Z,18.44
2023-01-01T08:04:49.136Z,18.44
2023-01-01T08:05:49.355Z,18.45
2023-01-01T08:06:49.494Z,18.50
2023-01-01T08:07:49.647Z,18.49
2023-01-01T08:08:49.816Z,18.49
2023-01-01T08:09:50.011Z,18.52
2023-01-01T08:10:50.226Z,18.55
2023-01-01T08:11:50.377Z,18.56
2023-01-01T08:12:50.566Z,18.55
2023-01-01T08:13:50.764Z,18.56
2023-01-01T08:14:50.917Z,18.58
2023-01-01T08:15:51.113Z,18.58
2023-01-01T08:16:51.275Z,18.58
2023-01-01T08:17:51.462Z,18.58
2023-01-01T08:18:51.616Z,18.58
2023-01-01T08:19:51.765Z,18.62
2023-01-01T08:20:51.959Z,18.60
2023-01-01T08:21:52.127Z,18.63
2023-01-01T08:22:52.299Z,18.63
2023-01-01T08:23:52.508Z,18.65
2023-01-01T08:24:52.650Z,18.66
2023-01-01T08:25:52.856Z,18.71
2023-01-01T08:26:52.997Z,18.71
2023-01-01T08:27:53.185Z,18.73
2023-01-01T08:28:57.216Z,18.74
2023-01-01T08:29:53.545Z,18.73
2023-01-01T08:30:53.728Z,18.74
2023-01-01T08:31:53.877Z,18.74
2023-01-01T08:32:54.038Z,18.74
2023-01-01T08:33:54.223Z,18.74
2023-01-01T08:34:54.409Z,18.77
2023-01-01T08:35:55.011Z,18.78
2023-01-01T08:36:54.783Z,18.78
2023-01-01T08:37:54.976Z,18.80
2023-01-01T08:38:55.133Z,18.81
2023-01-01T08:39:55.296Z,18.84
2023-01-01T08:40:55.525Z,18.84
2023-01-01T08:41:55.645Z,18.84
2023-01-01T08:42:55.809Z,18.89
2023-01-01T08:43:55.996Z,18.86
2023-01-01T08:44:56.153Z,18.89
2023-01-01T08:45:56.338Z,18.93
2023-01-01T08:46:56.506Z,18.95
2023-01-01T08:47:56.659Z,18.96
2023-01-01T08:48:56.839Z,18.96
2023-01-01T08:49:56.987Z,18.98
2023-01-01T08:50:57.201Z,18.96
2023-01-01T08:51:57.358Z,18.98
2023-01-01T08:52:57.490Z,18.96
2023-01-01T08:53:57.676Z,18.96
2023-01-01T08:54:57.831Z,18.99
2023-01-01T08:55:58.008Z,18.98
2023-01-01T08:56:58.266Z,19.00
2023-01-01T08:57:58.346Z,19.02
2023-01-01T08:59:03.827Z,19.07
2023-01-01T08:59:59.659Z,19.08
2023-01-01T09:00:58.843Z,19.07
2023-01-01T09:01:59.130Z,19.04
2023-01-01T09:02:59.273Z,19.07
2023-01-01T09:03:59.405Z,19.08
2023-01-01T09:04:59.581Z,19.09
2023-01-01T09:05:59.785Z,19.12
2023-01-01T09:06:59.920Z,19.12
2023-01-01T09:08:00.124Z,19.14
2023-01-01T09:09:00.286Z,19.15
2023-01-01T09:10:00.473Z,19.15
2023-01-01T09:11:00.734Z,19.14
2023-01-01T09:12:00.833Z,19.14
2023-01-01T09:13:01.004Z,19.12
2023-01-01T09:14:01.181Z,19.14
2023-01-01T09:15:01.371Z,19.19
2023-01-01T09:16:01.632Z,19.19
2023-01-01T09:17:01.751Z,19.18
2023-01-01T09:18:01.890Z,19.19
2023-01-01T09:19:02.070Z,19.19
2023-01-01T09:20:02.251Z,19.22
2023-01-01T09:21:02.428Z,19.21
2023-01-01T09:22:02.572Z,19.19
2023-01-01T09:23:05.955Z,19.19
2023-01-01T09:24:02.940Z,19.19
2023-01-01T09:25:03.122Z,19.19
2023-01-01T09:26:03.326Z,19.22
2023-01-01T09:27:03.468Z,19.22
2023-01-01T09:28:03.668Z,19.27
2023-01-01T09:29:03.836Z,19.29
2023-01-01T09:30:04.029Z,19.31
2023-01-01T09:31:04.223Z,19.31
2023-01-01T09:32:04.466Z,19.33
2023-01-01T09:33:04.555Z,19.36
2023-01-01T09:34:04.717Z,19.37
2023-01-01T09:35:04.928Z,19.45
2023-01-01T09:36:05.112Z,19.49
2023-01-01T09:37:05.241Z,19.52
2023-01-01T09:38:05.428Z,19.58
2023-01-01T09:39:05.629Z,19.66
2023-01-01T09:40:05.809Z,19.69
2023-01-01T09:41:06.001Z,19.73
2023-01-01T09:42:06.146Z,19.82
2023-01-01T09:43:06.321Z,19.86
2023-01-01T09:44:06.533Z,19.94
2023-01-01T09:45:06.694Z,19.99
2023-01-01T09:46:06.930Z,20.02
2023-01-01T09:47:07.008Z,20.04
2023-01-01T09:48:07.208Z,20.09
2023-01-01T09:49:07.392Z,20.14
2023-01-01T09:50:07.562Z,20.16
2023-01-01T09:51:07.760Z,20.21
2023-01-01T09:52:07.963Z,20.24
2023-01-01T09:53:08.134Z,20.26
2023-01-01T09:54:08.322Z,20.25
2023-01-01T09:55:08.496Z,20.25
2023-01-01T09:56:08.681Z,20.26
2023-01-01T09:57:09.816Z,20.29
2023-01-01T09:58:09.045Z,20.34
2023-01-01T09:59:09.222Z,20.34
2023-01-01T10:00:09.403Z,20.37
2023-01-01T10:01:09.718Z,20.39
2023-01-01T10:02:09.836Z,20.43
2023-01-01T10:03:09.914Z,20.44
2023-01-01T10:04:10.204Z,20.50
2023-01-01T10:05:10.296Z,20.51
2023-01-01T10:06:10.441Z,20.55
2023-01-01T10:07:10.587Z,20.56
2023-01-01T10:08:10.779Z,20.55
2023-01-01T10:09:10.959Z,20.55
2023-01-01T10:10:11.142Z,20.56
2023-01-01T10:11:11.381Z,20.56
2023-01-01T10:12:11.514Z,20.55
2023-01-01T10:13:11.693Z,20.55
2023-01-01T10:14:11.872Z,20.55
2023-01-01T10:15:12.054Z,20.50
2023-01-01T10:16:12.285Z,20.51
2023-01-01T10:17:12.498Z,20.52
2023-01-01T10:18:12.607Z,20.52
2023-01-01T10:19:12.786Z,20.52
2023-01-01T10:20:12.974Z,20.55
2023-01-01T10:21:13.239Z,20.58
2023-01-01T10:22:13.350Z,20.55
2023-01-01T10:23:13.525Z,20.51
2023-01-01T10:24:13.725Z,20.52
2023-01-01T10:25:13.880Z,20.52
2023-01-01T10:26:14.066Z,20.52
2023-01-01T10:27:14.225Z,20.51
2023-01-01T10:28:14.410Z,20.55
2023-01-01T10:29:14.593Z,20.56
2023-01-01T10:30:14.775Z,20.56
2023-01-01T10:31:15.002Z,20.56
2023-01-01T10:32:15.149Z,20.55
2023-01-01T10:33:15.332Z,20.55
2023-01-01T10:34:15.475Z,20.52
2023-01-01T10:35:15.660Z,20.55
2023-01-01T10:36:15.855Z,20.51
2023-01-01T10:37:16.006Z,20.50
2023-01-01T10:38:16.188Z,20.48
2023-01-01T10:39:16.442Z,20.48
2023-01-01T10:40:16.534Z,20.48
2023-01-01T10:41:19.802Z,20.48
2023-01-01T10:42:16.894Z,20.44
2023-01-01T10:43:17.076Z,20.43
2023-01-01T10:44:17.275Z,20.43
2023-01-01T10:45:17.455Z,20.41
2023-01-01T10:46:17.685Z,20.39
2023-01-01T10:47:17.837Z,20.40
2023-01-01T10:48:18.041Z,20.40
2023-01-01T10:49:18.171Z,20.40
2023-01-01T10:50:18.349Z,20.41
2023-01-01T10:51:18.539Z,20.43
2023-01-01T10:52:18.757Z,20.43
2023-01-01T10:53:18.902Z,20.43
2023-01-01T10:54:19.105Z,20.41
2023-01-01T10:55:19.269Z,20.40
2023-01-01T10:56:19.475Z,20.40
2023-01-01T10:57:19.632Z,20.40
2023-01-01T10:58:19.797Z,20.40
2023-01-01T10:59:20.011Z,20.39
2023-01-01T11:00:20.143Z,20.41
2023-01-01T11:01:20.468Z,20.39
2023-01-01T11:02:20.805Z,20.41
2023-01-01T11:03:20.715Z,20.40
2023-01-01T11:04:20.813Z,20.40
2023-01-01T11:05:22.332Z,20.39
2023-01-01T11:06:21.196Z,20.36
2023-01-01T11:07:21.379Z,20.32
2023-01-01T11:08:21.539Z,20.34
2023-01-01T11:09:21.722Z,20.36
2023-01-01T11:10:21.887Z,20.37
2023-01-01T11:11:22.088Z,20.39
2023-01-01T11:13:02.391Z,20.39
2023-01-01T11:13:23.411Z,20.34
2023-01-01T11:14:22.601Z,20.36
2023-01-01T11:15:22.743Z,20.32
2023-01-01T11:16:23.018Z,20.32
2023-01-01T11:17:23.090Z,20.34
2023-01-01T11:18:23.279Z,20.29
2023-01-01T11:19:23.471Z,20.28
2023-01-01T11:20:23.651Z,20.29
2023-01-01T11:21:23.837Z,20.25
2023-01-01T11:22:24.057Z,20.24
2023-01-01T11:23:24.168Z,20.24
2023-01-01T11:24:24.354Z,20.24
2023-01-01T11:25:24.540Z,20.22
2023-01-01T11:26:24.724Z,20.26
2023-01-01T11:27:24.927Z,20.25
2023-01-01T11:28:25.063Z,20.26
2023-01-01T11:29:25.260Z,20.29
2023-01-01T11:30:25.400Z,20.31
2023-01-01T11:31:25.601Z,20.37
2023-01-01T11:32:25.779Z,20.39
2023-01-01T11:33:25.950Z,20.41
2023-01-01T11:34:26.130Z,20.43
2023-01-01T11:35:26.331Z,20.48
2023-01-01T11:36:26.519Z,20.51
2023-01-01T11:37:26.673Z,20.59
2023-01-01T11:38:30.126Z,20.58
2023-01-01T11:39:27.186Z,20.62
2023-01-01T11:40:27.201Z,20.62
2023-01-01T11:41:27.411Z,20.66
2023-01-01T11:42:27.546Z,20.66
2023-01-01T11:43:27.730Z,20.67
2023-01-01T11:44:27.917Z,20.67
2023-01-01T11:45:31.700Z,20.66
2023-01-01T11:46:29.291Z,20.66
2023-01-01T11:47:28.435Z,20.66
2023-01-01T11:48:28.613Z,20.65
2023-01-01T11:49:28.821Z,20.62
2023-01-01T11:50:28.982Z,20.62
2023-01-01T11:51:29.173Z,20.62
2023-01-01T11:52:29.333Z,20.62
2023-01-01T11:53:29.506Z,20.66
2023-01-01T11:54:29.682Z,20.66
2023-01-01T11:55:29.886Z,20.67
2023-01-01T11:56:30.059Z,20.69
2023-01-01T11:57:30.246Z,20.66
2023-01-01T11:58:30.385Z,20.66
2023-01-01T11:59:30.575Z,20.66
2023-01-01T12:00:30.722Z,20.69
2023-01-01T12:01:30.961Z,20.70
2023-01-01T12:02:31.131Z,20.70
2023-01-01T12:03:33.531Z,20.70
2023-01-01T12:04:31.442Z,20.70
2023-01-01T12:05:31.623Z,20.67
2023-01-01T12:06:31.840Z,20.65
2023-01-01T12:07:32.003Z,20.66
2023-01-01T12:08:32.163Z,20.66
2023-01-01T12:09:32.323Z,20.69
2023-01-01T12:10:32.483Z,20.69
2023-01-01T12:11:32.665Z,20.69
2023-01-01T12:12:32.865Z,20.72
2023-01-01T12:13:33.023Z,20.72
2023-01-01T12:14:33.311Z,20.70
2023-01-01T12:15:33.425Z,20.72
2023-01-01T12:16:33.561Z,20.70
2023-01-01T12:17:33.769Z,20.74
2023-01-01T12:18:33.904Z,20.72
2023-01-01T12:19:34.093Z,20.72
2023-01-01T12:20:34.273Z,20.74
2023-01-01T12:21:34.475Z,20.70
2023-01-01T12:22:34.663Z,20.69
2023-01-01T12:23:34.816Z,20.67
2023-01-01T12:24:34.999Z,20.69
2023-01-01T12:25:35.174Z,20.66
2023-01-01T12:26:35.354Z,20.65
2023-01-01T12:27:35.569Z,20.63
2023-01-01T12:28:35.728Z,20.63
2023-01-01T12:29:35.918Z,20.65
2023-01-01T12:30:36.090Z,20.62
2023-01-01T12:31:36.297Z,20.60
2023-01-01T12:32:36.452Z,20.58
2023-01-01T12:33:36.605Z,20.60
2023-01-01T12:34:36.776Z,20.60
2023-01-01T12:35:36.964Z,20.62
2023-01-01T12:36:37.141Z,20.63
2023-01-01T12:37:37.339Z,20.58
2023-01-01T12:38:37.495Z,20.52
2023-01-01T12:39:37.654Z,20.50
2023-01-01T12:40:37.832Z,20.50
2023-01-01T12:41:38.013Z,20.50
2023-01-01T12:42:38.214Z,20.48
2023-01-01T12:43:38.366Z,20.47
2023-01-01T12:44:38.534Z,20.48
2023-01-01T12:45:38.727Z,20.50
2023-01-01T12:46:38.967Z,20.48
2023-01-01T12:47:39.110Z,20.50
2023-01-01T12:48:39.262Z,20.47
2023-01-01T12:49:39.446Z,20.43
2023-01-01T12:50:39.596Z,20.39
2023-01-01T12:51:39.775Z,20.37
2023-01-01T12:52:39.986Z,20.37
2023-01-01T12:53:40.129Z,20.29
2023-01-01T12:54:40.322Z,20.31
2023-01-01T12:55:40.505Z,20.29